Time;durP1;ratioP1;P1;durP2;ratioP2;P2;SDS_P1;SDS_P2;PMS_P1;PMS_P2;Temp;Humidity;BMP_temperature;BMP_pressure;BME280_temperature;BME280_humidity;BME280_pressure;Samples;Min_cycle;Max_cycle;Signal;HPM_P1;HPM_P2
2023/01/28 00:01:51;;;;;;;9.55;8.13;;;3.40;99.90;;;;;;5119078;27;20188;-76
2023/01/28 00:04:17;;;;;;;9.95;7.78;;;3.40;99.90;;;;;;5122867;28;20548;-75
2023/01/28 00:06:43;;;;;;;9.85;7.78;;;3.40;99.90;;;;;;5129312;27;20180;-75
2023/01/28 00:09:09;;;;;;;10.63;7.72;;;3.50;99.90;;;;;;5122965;27;20180;-75
2023/01/28 00:11:35;;;;;;;10.73;8.35;;;3.50;99.90;;;;;;5131268;28;20169;-75
2023/01/28 00:14:03;;;;;;;11.05;8.02;;;3.50;99.90;;;;;;5121058;27;20623;-75
2023/01/28 00:16:29;;;;;;;10.70;7.93;;;3.40;99.90;;;;;;5127527;27;20209;-75
2023/01/28 00:18:55;;;;;;;10.95;7.72;;;3.40;99.90;;;;;;5122643;27;20208;-75
2023/01/28 00:21:21;;;;;;;13.65;8.32;;;3.40;99.90;;;;;;5122379;27;20272;-77
2023/01/28 00:23:51;;;;;;;11.50;8.40;;;3.40;99.90;;;;;;5119634;27;20180;-75
2023/01/28 00:26:17;;;;;;;12.07;8.93;;;3.40;99.90;;;;;;5128654;27;20552;-75
2023/01/28 00:28:44;;;;;;;15.98;9.02;;;3.40;99.90;;;;;;5131153;27;20177;-75
2023/01/28 00:31:20;;;;;;;12.55;8.98;;;3.40;99.90;;;;;;5117221;27;20208;-75
2023/01/28 00:33:48;;;;;;;12.88;8.65;;;3.40;99.90;;;;;;5102782;27;20684;-75
2023/01/28 00:36:15;;;;;;;13.52;8.75;;;3.40;99.90;;;;;;5115358;27;20185;-75
2023/01/28 00:38:41;;;;;;;11.35;7.50;;;3.50;99.90;;;;;;5129861;27;20766;-76
2023/01/28 00:41:15;;;;;;;10.80;7.90;;;3.40;99.90;;;;;;5136212;27;20181;-77
2023/01/28 00:43:43;;;;;;;10.88;7.95;;;3.40;99.90;;;;;;5127487;27;20230;-75
2023/01/28 00:46:11;;;;;;;10.13;6.93;;;3.50;99.90;;;;;;5114871;27;20528;-76
2023/01/28 00:48:37;;;;;;;9.75;7.63;;;3.40;99.90;;;;;;5128646;27;20180;-76
2023/01/28 00:51:05;;;;;;;10.75;7.68;;;3.40;99.90;;;;;;5110313;27;20189;-75
2023/01/28 00:53:31;;;;;;;12.48;7.88;;;3.50;99.90;;;;;;5124374;27;20595;-75
2023/01/28 00:55:57;;;;;;;9.98;6.85;;;3.40;99.90;;;;;;5133708;27;20176;-75
2023/01/28 00:58:23;;;;;;;11.02;6.43;;;3.50;99.90;;;;;;5131983;27;20287;-75
2023/01/28 01:00:49;;;;;;;9.10;6.93;;;3.40;99.90;;;;;;5117601;27;20602;-75
2023/01/28 01:03:16;;;;;;;7.93;6.10;;;3.40;99.90;;;;;;5116083;27;20620;-75
2023/01/28 01:05:42;;;;;;;7.05;5.13;;;3.40;99.90;;;;;;5124119;27;20644;-76
2023/01/28 01:08:08;;;;;;;5.88;4.70;;;3.40;99.90;;;;;;5113528;27;20241;-76
2023/01/28 01:10:37;;;;;;;9.18;4.85;;;3.40;99.90;;;;;;5123185;27;20229;-76
2023/01/28 01:13:04;;;;;;;5.95;5.03;;;3.40;99.90;;;;;;5132612;27;20172;-76
2023/01/28 01:15:29;;;;;;;8.07;4.80;;;3.40;99.90;;;;;;5124189;27;20334;-75
2023/01/28 01:17:56;;;;;;;6.20;4.93;;;3.40;99.90;;;;;;5126678;27;20615;-78
2023/01/28 01:20:24;;;;;;;11.00;5.50;;;3.40;99.90;;;;;;5130596;27;20272;-75
2023/01/28 01:22:50;;;;;;;7.18;5.63;;;3.30;99.90;;;;;;5127512;27;20192;-75
2023/01/28 01:25:17;;;;;;;7.90;4.80;;;3.40;99.90;;;;;;5131389;27;20514;-75
2023/01/28 01:27:44;;;;;;;5.93;4.85;;;3.40;99.90;;;;;;5123039;27;20527;-75
2023/01/28 01:30:11;;;;;;;5.82;4.75;;;3.40;99.90;;;;;;5115150;27;20242;-76
2023/01/28 01:32:37;;;;;;;6.90;4.68;;;3.30;99.90;;;;;;5120687;27;20604;-75
2023/01/28 01:35:06;;;;;;;6.72;5.00;;;3.40;99.90;;;;;;5119966;27;20173;-75
2023/01/28 01:37:32;;;;;;;5.95;4.43;;;3.30;99.90;;;;;;5119377;27;20176;-76
2023/01/28 01:39:57;;;;;;;6.95;4.82;;;3.30;99.90;;;;;;5118131;27;20200;-75
2023/01/28 01:42:26;;;;;;;5.60;4.88;;;3.40;99.90;;;;;;5113760;27;20719;-75
2023/01/28 01:45:03;;;;;;;6.97;4.90;;;3.40;99.90;;;;;;5126184;27;20172;-75
2023/01/28 01:47:45;;;;;;;5.68;4.63;;;3.40;99.90;;;;;;5107462;28;20180;-82
2023/01/28 01:50:28;;;;;;;4.88;4.22;;;3.40;99.90;;;;;;5130369;27;20261;-76
2023/01/28 01:53:00;;;;;;;5.57;4.80;;;3.40;99.90;;;;;;5119776;27;20173;-78
2023/01/28 01:55:30;;;;;;;6.15;5.03;;;3.40;99.90;;;;;;5132006;27;20180;-75
2023/01/28 01:57:59;;;;;;;6.28;4.70;;;3.40;99.90;;;;;;5129979;27;20181;-81
2023/01/28 02:00:24;;;;;;;7.40;5.00;;;3.40;99.90;;;;;;5129095;27;20205;-75
2023/01/28 02:02:52;;;;;;;8.75;5.50;;;3.40;99.90;;;;;;5117031;27;20215;-75
2023/01/28 02:05:20;;;;;;;7.43;5.18;;;3.40;99.90;;;;;;5098390;28;20181;-76
2023/01/28 02:07:49;;;;;;;7.03;5.07;;;3.40;99.90;;;;;;5112797;27;20173;-75
2023/01/28 02:10:17;;;;;;;6.72;5.10;;;3.40;99.90;;;;;;5127530;27;20226;-76
2023/01/28 02:12:49;;;;;;;7.68;4.80;;;3.40;99.90;;;;;;5116584;27;20173;-75
2023/01/28 02:15:18;;;;;;;7.20;5.18;;;3.40;99.90;;;;;;5121244;27;20536;-76
2023/01/28 02:17:45;;;;;;;5.20;4.70;;;3.40;99.90;;;;;;5114394;27;20185;-76
2023/01/28 02:20:14;;;;;;;5.32;4.45;;;3.40;99.90;;;;;;5131069;27;20269;-75
2023/01/28 02:23:06;;;;;;;6.07;4.60;;;3.40;99.90;;;;;;5115395;27;20177;-75
2023/01/28 02:25:54;;;;;;;6.35;4.80;;;3.40;99.90;;;;;;5114170;27;20165;-76
2023/01/28 02:28:47;;;;;;;4.80;4.30;;;3.40;99.90;;;;;;5123042;27;20208;-75
2023/01/28 02:31:51;;;;;;;6.60;4.40;;;3.40;99.90;;;;;;5132085;27;20176;-77
2023/01/28 02:34:50;;;;;;;4.80;4.20;;;3.40;99.90;;;;;;5127548;27;20182;-75
2023/01/28 02:37:32;;;;;;;5.50;3.95;;;3.40;99.90;;;;;;5109814;27;20223;-76
2023/01/28 02:40:03;;;;;;;6.50;3.90;;;3.40;99.90;;;;;;5115061;27;20208;-76
2023/01/28 02:42:32;;;;;;;4.85;3.70;;;3.30;99.90;;;;;;5113571;27;20184;-76
2023/01/28 02:44:58;;;;;;;4.55;3.90;;;3.40;99.90;;;;;;5113456;27;20173;-76
2023/01/28 02:50:16;;;;;;;5.20;4.13;;;3.40;99.90;;;;;;5125533;27;20244;-75
2023/01/28 02:56:30;;;;;;;5.97;3.97;;;3.40;99.90;;;;;;5090462;28;20284;-75
2023/01/28 02:59:29;;;;;;;5.03;4.00;;;3.40;99.90;;;;;;5124752;27;20279;-76
2023/01/28 03:02:08;;;;;;;7.63;4.25;;;3.40;99.90;;;;;;5125086;27;20667;-76
2023/01/28 03:04:54;;;;;;;5.45;3.65;;;3.40;99.90;;;;;;5115305;27;20178;-75
2023/01/28 03:07:24;;;;;;;5.63;3.50;;;3.40;99.90;;;;;;5111435;28;20268;-75
2023/01/28 03:09:51;;;;;;;4.57;3.80;;;3.40;99.90;;;;;;5128481;27;20259;-76
2023/01/28 03:38:21;;;;;;;11.57;4.90;;;3.50;99.90;;;;;;5113875;28;20200;-76
2023/01/28 03:40:55;;;;;;;5.55;4.38;;;3.50;99.90;;;;;;5111374;28;20612;-75
2023/01/28 03:43:22;;;;;;;5.32;4.05;;;3.50;99.90;;;;;;5112170;27;20264;-75
2023/01/28 03:45:51;;;;;;;8.45;4.45;;;3.50;99.90;;;;;;5114526;28;20176;-76
2023/01/28 03:48:20;;;;;;;5.07;4.00;;;3.50;99.90;;;;;;5118754;28;20597;-75
2023/01/28 03:50:47;;;;;;;5.10;4.30;;;3.60;99.90;;;;;;5120779;27;20200;-75
2023/01/28 03:53:17;;;;;;;5.38;4.30;;;3.60;99.90;;;;;;5115457;27;20255;-76
2023/01/28 03:55:50;;;;;;;8.35;4.10;;;3.50;99.90;;;;;;5135473;27;20201;-75
2023/01/28 03:58:17;;;;;;;6.85;4.30;;;3.50;99.90;;;;;;5132745;27;20236;-75
2023/01/28 04:00:44;;;;;;;5.90;4.00;;;3.50;99.90;;;;;;5133898;27;20534;-76
2023/01/28 04:03:16;;;;;;;5.90;4.47;;;3.50;99.90;;;;;;5134273;27;20611;-75
2023/01/28 04:06:07;;;;;;;10.10;4.22;;;3.60;99.90;;;;;;5130531;27;20181;-76
2023/01/28 04:09:04;;;;;;;4.82;4.05;;;3.60;99.90;;;;;;5113452;27;20192;-76
2023/01/28 04:11:49;;;;;;;5.20;4.00;;;3.60;99.90;;;;;;5119283;27;20235;-75
2023/01/28 04:14:21;;;;;;;6.40;4.60;;;3.60;99.90;;;;;;5132613;27;20207;-76
2023/01/28 04:17:09;;;;;;;5.53;4.30;;;3.60;99.90;;;;;;5126798;27;20253;-75
2023/01/28 04:19:36;;;;;;;6.45;4.40;;;3.60;99.90;;;;;;5128751;27;20291;-75
2023/01/28 04:22:06;;;;;;;6.40;4.32;;;3.60;99.90;;;;;;5115522;27;20189;-75
2023/01/28 04:24:32;;;;;;;7.07;4.43;;;3.50;99.90;;;;;;5125084;27;20195;-75
2023/01/28 04:26:58;;;;;;;5.65;4.50;;;3.50;99.90;;;;;;5120226;27;20173;-75
2023/01/28 04:29:24;;;;;;;5.70;4.18;;;3.50;99.90;;;;;;5125147;27;20199;-75
2023/01/28 04:31:52;;;;;;;5.85;4.05;;;3.50;99.90;;;;;;5128238;27;20242;-76
2023/01/28 04:34:33;;;;;;;6.78;4.63;;;3.50;99.90;;;;;;5127179;27;20168;-75
2023/01/28 04:37:25;;;;;;;5.85;4.43;;;3.50;99.90;;;;;;5115517;27;20625;-76
2023/01/28 04:40:11;;;;;;;5.68;4.60;;;3.50;99.90;;;;;;5115648;27;20225;-75
2023/01/28 04:42:57;;;;;;;8.05;5.03;;;3.50;99.90;;;;;;5118972;27;20659;-75
2023/01/28 04:45:36;;;;;;;6.50;4.70;;;3.50;99.90;;;;;;5129123;27;20184;-76
2023/01/28 04:48:20;;;;;;;6.50;5.25;;;3.50;99.90;;;;;;5128009;27;20177;-75
2023/01/28 04:51:04;;;;;;;8.18;5.25;;;3.50;99.90;;;;;;5134729;27;20195;-75
2023/01/28 04:53:36;;;;;;;7.75;4.90;;;3.50;99.90;;;;;;5133370;27;20177;-75
2023/01/28 04:56:07;;;;;;;6.03;5.13;;;3.50;99.90;;;;;;5123055;27;20413;-76
2023/01/28 04:58:34;;;;;;;7.38;5.53;;;3.40;99.90;;;;;;5118786;27;20235;-75
2023/01/28 05:01:04;;;;;;;6.88;5.35;;;3.50;99.90;;;;;;5132689;27;20187;-75
2023/01/28 05:03:32;;;;;;;7.20;5.07;;;3.50;99.90;;;;;;5130288;27;20185;-75
2023/01/28 05:05:58;;;;;;;8.40;5.10;;;3.50;99.90;;;;;;5122006;27;20185;-76
2023/01/28 05:08:40;;;;;;;7.65;5.22;;;3.40;99.90;;;;;;5128240;27;20184;-78
2023/01/28 05:11:06;;;;;;;8.35;5.32;;;3.50;99.90;;;;;;5116333;27;20220;-75
2023/01/28 05:13:32;;;;;;;8.52;5.10;;;3.50;99.90;;;;;;5119451;27;20182;-75
2023/01/28 05:15:59;;;;;;;8.75;5.88;;;3.50;99.90;;;;;;5128755;27;20184;-79
2023/01/28 05:18:24;;;;;;;6.75;5.60;;;3.50;99.90;;;;;;5119132;27;20204;-75
2023/01/28 05:21:07;;;;;;;6.60;5.30;;;3.50;99.90;;;;;;5134412;27;20275;-75
2023/01/28 05:23:35;;;;;;;9.60;5.72;;;3.40;99.90;;;;;;5130261;27;20183;-76
2023/01/28 05:26:01;;;;;;;7.85;6.07;;;3.50;99.90;;;;;;5131462;27;20220;-75
2023/01/28 05:28:28;;;;;;;6.50;5.20;;;3.40;99.90;;;;;;5118968;27;20253;-75
2023/01/28 05:30:56;;;;;;;10.93;5.88;;;3.40;99.90;;;;;;5134076;27;20168;-75
2023/01/28 05:33:21;;;;;;;7.13;6.18;;;3.40;99.90;;;;;;5133153;27;20283;-75
2023/01/28 05:35:48;;;;;;;7.60;6.18;;;3.40;99.90;;;;;;5121630;27;20186;-75
2023/01/28 05:38:16;;;;;;;9.48;6.25;;;3.40;99.90;;;;;;5128477;27;20292;-75
2023/01/28 05:40:42;;;;;;;11.35;6.00;;;3.40;99.90;;;;;;5129246;27;20264;-75
2023/01/28 05:43:07;;;;;;;10.15;6.18;;;3.40;99.90;;;;;;5113563;27;20622;-77
2023/01/28 05:45:56;;;;;;;7.60;6.15;;;3.40;99.90;;;;;;5121837;27;20218;-76
2023/01/28 05:48:29;;;;;;;7.97;5.78;;;3.40;99.90;;;;;;5127859;27;20265;-76
2023/01/28 05:51:30;;;;;;;9.27;6.15;;;3.40;99.90;;;;;;5067095;28;20203;-76
2023/01/28 05:53:57;;;;;;;9.77;5.85;;;3.40;99.90;;;;;;5110365;27;20326;-76
2023/01/28 05:56:23;;;;;;;9.18;6.22;;;3.40;99.90;;;;;;5119590;27;20319;-76
2023/01/28 05:58:49;;;;;;;7.70;5.97;;;3.40;99.90;;;;;;5120404;27;20237;-76
2023/01/28 06:01:14;;;;;;;9.60;6.65;;;3.40;99.90;;;;;;5118693;27;20268;-76
2023/01/28 06:03:48;;;;;;;8.15;6.47;;;3.40;99.90;;;;;;5119633;27;20173;-75
2023/01/28 06:06:13;;;;;;;9.85;5.97;;;3.40;99.90;;;;;;5117616;27;20729;-75
2023/01/28 06:08:40;;;;;;;8.15;6.68;;;3.40;99.90;;;;;;5125495;27;20713;-75
2023/01/28 06:11:06;;;;;;;8.68;6.70;;;3.40;99.90;;;;;;5129319;27;20224;-74
2023/01/28 06:13:33;;;;;;;9.38;7.35;;;3.40;99.90;;;;;;5127158;27;20181;-75
2023/01/28 06:16:19;;;;;;;8.60;6.82;;;3.40;99.90;;;;;;5096634;27;20648;-75
2023/01/28 06:19:03;;;;;;;7.97;6.18;;;3.40;99.90;;;;;;5126872;27;20285;-75
2023/01/28 06:21:29;;;;;;;10.35;7.32;;;3.30;99.90;;;;;;5130523;27;20223;-75
2023/01/28 06:23:56;;;;;;;11.15;7.03;;;3.40;99.90;;;;;;5129476;27;20650;-76
2023/01/28 06:26:22;;;;;;;9.15;6.93;;;3.30;99.90;;;;;;5130287;27;20263;-75
2023/01/28 06:28:48;;;;;;;9.35;7.07;;;3.30;99.90;;;;;;5120191;27;20284;-76
2023/01/28 06:31:14;;;;;;;12.88;7.38;;;3.30;99.90;;;;;;5115169;27;20264;-75
2023/01/28 06:33:39;;;;;;;12.13;7.78;;;3.30;99.90;;;;;;5124099;27;20177;-78
2023/01/28 06:36:06;;;;;;;11.73;8.00;;;3.30;99.90;;;;;;5120944;27;20613;-76
2023/01/28 06:38:32;;;;;;;10.75;7.75;;;3.30;99.90;;;;;;5126951;27;20196;-76
2023/01/28 06:40:58;;;;;;;10.88;8.30;;;3.30;99.90;;;;;;5118099;27;20544;-75
2023/01/28 06:43:26;;;;;;;10.27;7.95;;;3.30;99.90;;;;;;5123325;27;20230;-81
2023/01/28 06:45:54;;;;;;;12.15;8.65;;;3.30;99.90;;;;;;5119441;27;20189;-76
2023/01/28 06:48:20;;;;;;;10.68;8.18;;;3.30;99.90;;;;;;5127900;27;20268;-76
2023/01/28 06:50:47;;;;;;;15.48;8.57;;;3.40;99.90;;;;;;5122075;27;20185;-76
2023/01/28 06:53:13;;;;;;;9.98;7.95;;;3.30;99.90;;;;;;5122661;27;20620;-76
2023/01/28 06:55:39;;;;;;;12.05;8.35;;;3.30;99.90;;;;;;5115668;27;20189;-77
2023/01/28 06:58:04;;;;;;;11.15;8.85;;;3.30;99.90;;;;;;5131044;27;20191;-76
2023/01/28 07:00:30;;;;;;;11.68;8.95;;;3.30;99.90;;;;;;5123718;27;20704;-76
2023/01/28 07:02:56;;;;;;;12.18;8.48;;;3.30;99.90;;;;;;5124725;27;20227;-77
2023/01/28 07:05:22;;;;;;;10.43;8.13;;;3.20;99.90;;;;;;5127366;27;20177;-76
2023/01/28 07:07:48;;;;;;;11.63;8.85;;;3.20;99.90;;;;;;5125517;27;20540;-75
2023/01/28 07:10:14;;;;;;;11.23;8.40;;;3.20;99.90;;;;;;5119866;27;20234;-75
2023/01/28 07:12:40;;;;;;;12.07;8.60;;;3.20;99.90;;;;;;5111200;28;20233;-76
2023/01/28 07:15:06;;;;;;;13.52;8.68;;;3.20;99.90;;;;;;5128054;27;20180;-75
2023/01/28 07:17:32;;;;;;;11.18;8.40;;;3.20;99.90;;;;;;5130817;27;20561;-77
2023/01/28 07:19:58;;;;;;;11.68;9.13;;;3.20;99.90;;;;;;5131821;27;20211;-78
2023/01/28 07:22:24;;;;;;;10.85;8.73;;;3.30;99.90;;;;;;5133267;27;20185;-77
2023/01/28 07:24:50;;;;;;;12.48;8.90;;;3.20;99.90;;;;;;5120927;27;20173;-77
2023/01/28 07:27:16;;;;;;;12.02;8.50;;;3.20;99.90;;;;;;5129021;27;20215;-76
2023/01/28 07:29:41;;;;;;;13.43;10.68;;;3.20;99.90;;;;;;5126204;27;20628;-75
2023/01/28 07:32:07;;;;;;;13.98;10.52;;;3.20;99.90;;;;;;5120662;27;20177;-76
2023/01/28 07:34:33;;;;;;;12.30;9.75;;;3.10;99.90;;;;;;5132085;27;20184;-75
2023/01/28 07:36:59;;;;;;;9.18;7.53;;;3.10;99.90;;;;;;5115134;27;20613;-75
2023/01/28 07:39:24;;;;;;;11.50;8.70;;;3.10;99.90;;;;;;5121520;27;20572;-75
2023/01/28 07:41:50;;;;;;;13.50;9.27;;;3.10;99.90;;;;;;5122827;27;20185;-76
2023/01/28 07:44:37;;;;;;;10.73;8.68;;;3.10;99.90;;;;;;5123909;28;20188;-76
2023/01/28 07:47:04;;;;;;;10.98;8.85;;;3.00;99.90;;;;;;5130857;27;20624;-75
2023/01/28 07:49:29;;;;;;;12.77;8.88;;;3.00;99.90;;;;;;5132461;27;20204;-76
2023/01/28 07:51:55;;;;;;;12.65;8.77;;;3.00;99.90;;;;;;5125998;27;20265;-77
2023/01/28 07:54:21;;;;;;;12.95;9.13;;;3.00;99.90;;;;;;5124067;28;20188;-76
2023/01/28 07:56:47;;;;;;;13.60;9.65;;;3.00;99.90;;;;;;5133084;27;20173;-75
2023/01/28 07:59:13;;;;;;;13.32;8.75;;;3.10;99.90;;;;;;5129536;28;20237;-75
2023/01/28 08:01:38;;;;;;;12.50;9.02;;;3.00;99.90;;;;;;5130947;27;20191;-78
2023/01/28 08:04:04;;;;;;;11.35;8.65;;;3.10;99.90;;;;;;5120070;28;20177;-78
2023/01/28 08:06:30;;;;;;;11.75;9.25;;;3.10;99.90;;;;;;5112958;28;20173;-75
2023/01/28 08:08:56;;;;;;;13.65;8.48;;;3.10;99.90;;;;;;5120105;28;20543;-76
2023/01/28 08:11:22;;;;;;;12.10;8.75;;;3.10;99.90;;;;;;5119658;28;20221;-79
2023/01/28 08:13:48;;;;;;;10.90;7.82;;;3.10;99.90;;;;;;5119906;28;20651;-75
2023/01/28 08:16:14;;;;;;;11.13;7.70;;;3.20;99.90;;;;;;5122554;27;20177;-75
2023/01/28 08:18:40;;;;;;;12.45;8.55;;;3.10;99.90;;;;;;5116675;28;20695;-75
2023/01/28 08:21:06;;;;;;;15.63;11.07;;;3.10;99.90;;;;;;5131463;28;20189;-76
2023/01/28 08:23:33;;;;;;;12.05;8.95;;;3.20;99.90;;;;;;5126131;28;20192;-75
2023/01/28 08:25:59;;;;;;;15.20;8.23;;;3.30;99.90;;;;;;5117352;27;20181;-76
2023/01/28 08:28:26;;;;;;;11.45;8.23;;;3.60;99.90;;;;;;5115914;28;20447;-76
2023/01/28 08:30:52;;;;;;;10.68;8.32;;;4.20;99.90;;;;;;5113539;28;20723;-78
2023/01/28 08:33:18;;;;;;;12.82;8.68;;;5.30;99.90;;;;;;5109729;28;20195;-75
2023/01/28 08:35:45;;;;;;;14.20;8.70;;;6.20;99.90;;;;;;5111994;28;20256;-76
2023/01/28 08:38:14;;;;;;;10.82;7.95;;;6.40;99.90;;;;;;5127615;27;20272;-79
2023/01/28 08:40:39;;;;;;;9.63;7.57;;;6.20;99.90;;;;;;5114593;28;20232;-75
2023/01/28 08:43:06;;;;;;;9.10;7.97;;;6.00;99.90;;;;;;5130109;27;20264;-76
2023/01/28 08:45:32;;;;;;;10.95;8.02;;;5.70;99.90;;;;;;5134424;27;20230;-76
2023/01/28 08:48:03;;;;;;;11.20;7.65;;;5.50;99.90;;;;;;5126511;27;20637;-82
2023/01/28 08:50:32;;;;;;;11.98;8.60;;;5.40;99.90;;;;;;5126110;27;20256;-76
2023/01/28 08:53:00;;;;;;;14.50;8.13;;;5.40;99.90;;;;;;5115371;27;20177;-78
2023/01/28 08:55:28;;;;;;;10.80;8.38;;;5.60;99.90;;;;;;5134045;27;20178;-76
2023/01/28 08:57:53;;;;;;;10.82;8.20;;;6.10;99.90;;;;;;5136647;27;20221;-78
2023/01/28 09:00:20;;;;;;;10.40;7.80;;;7.00;99.90;;;;;;5134399;27;20211;-78
2023/01/28 09:02:46;;;;;;;9.57;8.07;;;8.20;99.90;;;;;;5134384;27;20504;-78
2023/01/28 09:05:13;;;;;;;13.00;8.63;;;9.20;99.90;;;;;;5132777;27;20269;-75
2023/01/28 09:07:39;;;;;;;9.85;7.97;;;10.20;99.90;;;;;;5135703;27;20184;-75
2023/01/28 09:10:05;;;;;;;11.55;8.50;;;11.00;99.90;;;;;;5127230;27;20173;-75
2023/01/28 09:12:32;;;;;;;9.93;7.30;;;11.60;99.90;;;;;;5115516;27;20162;-75
2023/01/28 09:14:57;;;;;;;9.27;6.90;;;12.10;98.80;;;;;;5124538;27;20180;-75
2023/01/28 09:17:23;;;;;;;9.55;7.10;;;12.30;98.00;;;;;;5125897;27;20519;-76
2023/01/28 09:19:50;;;;;;;9.82;6.97;;;12.30;98.10;;;;;;5127626;27;20231;-76
2023/01/28 09:22:16;;;;;;;7.35;6.32;;;12.30;96.70;;;;;;5117869;27;20177;-76
2023/01/28 09:24:42;;;;;;;7.95;6.55;;;12.50;96.80;;;;;;5129720;27;20636;-75
2023/01/28 09:27:08;;;;;;;9.40;6.38;;;12.80;96.00;;;;;;5128822;27;20206;-76
2023/01/28 09:29:34;;;;;;;7.35;6.38;;;13.10;95.30;;;;;;5125337;27;20188;-76
2023/01/28 09:32:00;;;;;;;8.10;6.18;;;13.40;94.30;;;;;;5122763;27;20181;-76
2023/01/28 09:34:25;;;;;;;8.15;5.90;;;13.70;93.80;;;;;;5115784;27;20526;-76
2023/01/28 09:36:52;;;;;;;9.40;6.20;;;14.00;93.20;;;;;;5134398;27;20615;-75
2023/01/28 09:39:17;;;;;;;7.03;5.90;;;14.30;92.80;;;;;;5126294;27;20205;-78
2023/01/28 09:42:04;;;;;;;7.32;6.43;;;14.50;92.10;;;;;;5123257;27;20795;-80
2023/01/28 09:44:43;;;;;;;8.93;6.40;;;14.30;90.20;;;;;;5130274;27;20199;-76
2023/01/28 09:47:21;;;;;;;10.13;6.57;;;13.80;90.60;;;;;;5135480;27;20176;-75
2023/01/28 09:49:50;;;;;;;9.35;6.55;;;13.10;92.40;;;;;;5124143;27;21155;-76
2023/01/28 09:52:20;;;;;;;9.95;6.68;;;12.50;93.70;;;;;;5135437;27;20210;-76
2023/01/28 09:54:49;;;;;;;6.93;6.07;;;11.90;94.00;;;;;;5134368;27;20184;-77
2023/01/28 09:57:39;;;;;;;9.02;7.00;;;11.40;94.80;;;;;;5128088;27;20225;-78
2023/01/28 10:00:16;;;;;;;8.90;6.80;;;10.90;95.90;;;;;;5128165;27;20200;-77
2023/01/28 10:02:45;;;;;;;10.32;7.20;;;10.60;97.20;;;;;;5131124;27;20658;-76
2023/01/28 10:05:29;;;;;;;8.48;6.93;;;10.40;97.90;;;;;;5129519;27;20264;-77
2023/01/28 10:08:29;;;;;;;11.45;7.45;;;10.60;98.80;;;;;;5123190;27;20187;-80
2023/01/28 10:11:04;;;;;;;10.35;7.18;;;10.80;98.60;;;;;;5123399;27;20212;-79
2023/01/28 10:13:42;;;;;;;8.23;6.60;;;10.70;98.70;;;;;;5126282;27;20264;-81
2023/01/28 10:16:27;;;;;;;8.40;6.50;;;10.50;98.80;;;;;;5113301;27;20177;-76
2023/01/28 10:19:23;;;;;;;7.85;6.25;;;10.50;98.90;;;;;;5126015;27;20192;-76
2023/01/28 10:21:51;;;;;;;9.75;6.82;;;10.80;98.90;;;;;;5117423;27;20718;-76
2023/01/28 10:24:39;;;;;;;9.35;6.38;;;12.20;98.60;;;;;;5129330;27;20181;-76
2023/01/28 10:27:18;;;;;;;7.80;5.93;;;13.60;96.30;;;;;;5132124;27;20188;-80
2023/01/28 10:29:48;;;;;;;8.88;5.93;;;15.70;93.90;;;;;;5132901;27;20188;-76
2023/01/28 10:32:37;;;;;;;9.20;5.43;;;17.40;90.70;;;;;;5115076;27;20238;-82
2023/01/28 10:35:03;;;;;;;7.93;5.43;;;19.20;83.50;;;;;;5130337;27;20188;-76
2023/01/28 10:37:35;;;;;;;7.88;4.97;;;20.20;76.50;;;;;;5133933;27;20184;-78
2023/01/28 10:40:02;;;;;;;6.55;4.75;;;20.10;72.70;;;;;;5124590;27;20303;-81
2023/01/28 10:42:38;;;;;;;7.63;5.10;;;19.70;70.80;;;;;;5113266;27;20601;-81
2023/01/28 10:45:30;;;;;;;8.02;5.25;;;19.00;70.20;;;;;;5117913;27;20660;-78
2023/01/28 10:48:21;;;;;;;6.78;5.25;;;18.10;72.20;;;;;;5132458;27;20177;-78
2023/01/28 10:51:00;;;;;;;6.50;5.80;;;16.80;74.30;;;;;;5112809;28;20193;-76
2023/01/28 10:53:44;;;;;;;10.73;6.00;;;15.40;78.30;;;;;;5114081;27;20185;-78
2023/01/28 10:56:16;;;;;;;8.27;6.32;;;14.20;82.40;;;;;;5131568;27;20183;-77
2023/01/28 10:59:06;;;;;;;8.52;6.20;;;13.40;86.20;;;;;;5130047;27;20205;-76
2023/01/28 11:01:43;;;;;;;10.00;5.50;;;12.90;89.70;;;;;;5122553;27;20558;-75
2023/01/28 11:04:21;;;;;;;6.88;5.55;;;12.80;90.50;;;;;;5124909;27;20176;-76
2023/01/28 11:07:04;;;;;;;10.18;6.45;;;13.80;90.50;;;;;;5112239;27;20191;-80
2023/01/28 11:09:37;;;;;;;8.45;6.20;;;14.20;87.50;;;;;;5128021;27;20248;-76
2023/01/28 11:12:27;;;;;;;7.03;6.18;;;14.00;86.20;;;;;;5130242;27;20652;-77
2023/01/28 11:14:55;;;;;;;6.70;5.88;;;13.50;86.90;;;;;;5120267;27;20204;-75
2023/01/28 11:17:24;;;;;;;10.60;6.47;;;12.80;88.50;;;;;;5129425;27;20551;-75
2023/01/28 11:19:54;;;;;;;11.93;7.18;;;12.20;90.10;;;;;;5128849;27;20331;-76
2023/01/28 11:22:35;;;;;;;8.43;6.50;;;11.70;91.00;;;;;;5132716;27;20704;-78
2023/01/28 11:25:12;;;;;;;9.13;7.00;;;11.10;91.80;;;;;;5132948;27;20215;-78
2023/01/28 11:27:38;;;;;;;9.05;7.53;;;10.70;92.90;;;;;;5133409;27;20259;-78
2023/01/28 11:30:06;;;;;;;8.73;7.22;;;10.30;93.70;;;;;;5128985;27;20215;-78
2023/01/28 11:32:32;;;;;;;8.88;7.00;;;10.00;94.40;;;;;;5116165;27;20185;-75
2023/01/28 11:35:01;;;;;;;10.80;7.50;;;9.70;94.90;;;;;;5131933;27;20192;-76
2023/01/28 11:37:28;;;;;;;11.50;7.78;;;9.40;95.40;;;;;;5132813;27;20184;-77
2023/01/28 11:40:19;;;;;;;9.48;7.40;;;9.40;95.90;;;;;;5131536;27;20367;-80
2023/01/28 11:42:49;;;;;;;12.95;7.28;;;9.30;96.20;;;;;;5132832;27;20180;-78
2023/01/28 11:45:18;;;;;;;8.68;7.20;;;9.20;96.60;;;;;;5132494;27;20184;-76
2023/01/28 11:48:04;;;;;;;15.65;9.63;;;9.10;96.70;;;;;;5123840;27;20217;-77
2023/01/28 11:50:43;;;;;;;11.20;7.90;;;9.00;96.90;;;;;;5106972;28;20286;-76
2023/01/28 11:53:41;;;;;;;12.65;8.43;;;8.90;97.20;;;;;;5118728;28;20241;-77
2023/01/28 11:56:28;;;;;;;9.98;7.88;;;8.80;97.40;;;;;;5111348;28;20173;-77
2023/01/28 11:59:21;;;;;;;29.80;16.52;;;8.80;98.00;;;;;;5119462;28;20256;-77
2023/01/28 12:02:08;;;;;;;15.88;10.30;;;8.70;97.90;;;;;;5117561;27;20172;-77
2023/01/28 12:04:46;;;;;;;10.48;8.13;;;8.70;98.10;;;;;;5114608;28;20184;-77
2023/01/28 12:07:30;;;;;;;13.32;8.85;;;8.60;98.30;;;;;;5122542;28;20265;-77
2023/01/28 12:10:09;;;;;;;10.82;7.72;;;8.60;98.40;;;;;;5131415;27;20184;-78
2023/01/28 12:12:41;;;;;;;11.82;8.13;;;8.50;98.60;;;;;;5131543;27;20228;-76
2023/01/28 12:15:16;;;;;;;10.52;7.70;;;8.30;98.80;;;;;;5119714;27;20177;-77
2023/01/28 12:18:19;;;;;;;9.73;7.68;;;8.20;98.90;;;;;;5116796;27;20185;-76
2023/01/28 12:20:44;;;;;;;11.13;8.35;;;8.10;99.20;;;;;;5104761;27;20488;-77
2023/01/28 12:23:19;;;;;;;12.38;8.25;;;8.00;99.50;;;;;;5130867;27;20176;-77
2023/01/28 12:25:54;;;;;;;10.88;8.15;;;8.00;99.80;;;;;;5135439;27;20644;-77
2023/01/28 12:29:03;;;;;;;13.45;7.80;;;8.20;99.90;;;;;;5135774;27;20670;-77
2023/01/28 12:31:47;;;;;;;11.13;8.13;;;8.40;99.90;;;;;;5126075;27;20229;-77
2023/01/28 12:34:37;;;;;;;13.95;7.53;;;8.90;99.80;;;;;;5125818;27;20179;-77
2023/01/28 12:37:21;;;;;;;9.90;7.50;;;10.30;99.10;;;;;;5130233;27;20180;-78
2023/01/28 12:40:05;;;;;;;9.80;6.47;;;12.80;96.20;;;;;;5130914;27;20667;-81
2023/01/28 12:42:43;;;;;;;10.60;7.10;;;13.60;91.80;;;;;;5134647;27;20186;-77
2023/01/28 12:45:28;;;;;;;9.77;6.97;;;13.20;90.60;;;;;;5131700;27;20254;-78
2023/01/28 12:48:05;;;;;;;9.57;7.07;;;12.70;91.30;;;;;;5123874;27;20176;-77
2023/01/28 12:50:40;;;;;;;10.55;7.15;;;12.10;92.60;;;;;;5134951;27;20176;-78
2023/01/28 12:53:27;;;;;;;11.45;7.50;;;11.70;93.70;;;;;;5115661;27;20254;-78
2023/01/28 12:55:59;;;;;;;15.18;7.15;;;11.30;95.00;;;;;;5132013;27;20624;-79
2023/01/28 12:58:38;;;;;;;10.15;7.18;;;11.70;96.90;;;;;;5134418;27;20274;-77
2023/01/28 13:01:09;;;;;;;9.88;6.68;;;13.40;96.00;;;;;;5131960;27;20176;-77
2023/01/28 13:04:02;;;;;;;8.95;7.00;;;15.20;93.20;;;;;;5132619;27;20251;-77
2023/01/28 13:06:36;;;;;;;8.40;6.72;;;16.80;90.50;;;;;;5131379;27;20592;-77
2023/01/28 13:09:21;;;;;;;10.07;6.88;;;17.90;82.80;;;;;;5130885;27;20652;-78
2023/01/28 13:11:50;;;;;;;10.73;6.63;;;18.60;78.30;;;;;;5130271;27;20220;-79
2023/01/28 13:14:19;;;;;;;9.30;6.97;;;18.30;75.40;;;;;;5131609;27;20259;-75
2023/01/28 13:16:44;;;;;;;9.90;6.85;;;17.80;74.80;;;;;;5130982;27;20177;-75
2023/01/28 13:19:22;;;;;;;10.68;7.07;;;16.90;75.60;;;;;;5130464;27;20294;-77
2023/01/28 13:21:48;;;;;;;8.50;7.07;;;15.80;76.90;;;;;;5134632;27;20249;-77
2023/01/28 13:24:14;;;;;;;9.57;6.90;;;14.60;80.80;;;;;;5133278;27;20181;-78
2023/01/28 13:26:44;;;;;;;12.32;6.70;;;13.80;84.30;;;;;;5131373;27;20284;-78
2023/01/28 13:29:13;;;;;;;10.68;7.85;;;13.00;87.00;;;;;;5125068;27;20173;-82
2023/01/28 13:31:42;;;;;;;9.27;7.05;;;12.30;89.70;;;;;;5121896;27;20224;-77
2023/01/28 13:34:32;;;;;;;11.90;8.18;;;11.80;90.60;;;;;;5128516;27;20180;-77
2023/01/28 13:37:32;;;;;;;11.85;7.85;;;11.30;91.50;;;;;;5130209;27;20263;-77
2023/01/28 13:40:01;;;;;;;15.85;10.40;;;10.80;92.40;;;;;;5129412;27;20626;-78
2023/01/28 13:42:28;;;;;;;20.85;11.48;;;10.40;93.40;;;;;;5130670;27;20173;-77
2023/01/28 13:44:56;;;;;;;14.57;7.50;;;10.20;93.60;;;;;;5124379;27;20191;-77
2023/01/28 13:47:30;;;;;;;12.05;7.63;;;9.90;94.20;;;;;;5126320;27;20177;-77
2023/01/28 13:50:02;;;;;;;10.13;8.02;;;9.70;94.70;;;;;;5129640;27;20692;-77